KRAC/RAC METAR and TAF weather

Enter ICAO airport designator
Station Type Date Time Source
KRAC METAR 2021/05/11 21:53 UTC NOAA

KRAC 112153Z AUTO 11006KT 10SM CLR 09/M01 A3037 RMK AO2 SLP290 T00941006


Station Type Date Time Source
KRAC Decoded METAR 2021/05/11 21:53 UTC NOAA

BATTEN INTERNATIONAL AIRPORT, WI, United States (KRAC) 42-46N 87-49W 203M
May 11, 2021 - 05:53 PM EDT / 2021.05.11 2153 UTC
Wind: from the ESE (110 degrees) at 7 MPH (6 KT):0
Visibility: 10 mile(s):0
Sky conditions: clear
Temperature: 48.9 F (9.4 C)
Dew Point: 30.9 F (-0.6 C)
Relative Humidity: 49%
Pressure (altimeter): 30.37 in. Hg (1028 hPa)
ob: KRAC 112153Z AUTO 11006KT 10SM CLR 09/M01 A3037 RMK AO2 SLP290 T00941006
cycle: 22

Station Type Date Time Source
KRAC TAF UTC NOAA

Error!

Example: see airport list